Time;durP1;ratioP1;P1;durP2;ratioP2;P2;SDS_P1;SDS_P2;PMS_P1;PMS_P2;Temp;Humidity;BMP_temperature;BMP_pressure;BME280_temperature;BME280_humidity;BME280_pressure;Samples;Min_cycle;Max_cycle;Signal;HPM_P1;HPM_P2
2022/05/23 00:01:56;;;;;;;0.00;0.00;;;21.20;85.30;;;;;;4131826;28;20078;-72
2022/05/23 00:04:24;;;;;;;0.00;0.00;;;21.20;85.40;;;;;;4145363;28;20117;-71
2022/05/23 00:06:49;;;;;;;0.00;0.00;;;21.30;85.50;;;;;;4146287;28;20349;-70
2022/05/23 00:09:18;;;;;;;0.00;0.00;;;21.30;85.50;;;;;;4132046;28;20045;-70
2022/05/23 00:11:46;;;;;;;0.00;0.00;;;21.30;85.20;;;;;;4131736;28;20055;-71
2022/05/23 00:14:10;;;;;;;0.00;0.00;;;21.20;85.40;;;;;;4146123;28;20046;-70
2022/05/23 00:16:40;;;;;;;0.00;0.00;;;21.10;85.50;;;;;;4131864;28;20104;-70
2022/05/23 00:19:11;;;;;;;0.00;0.00;;;21.10;85.40;;;;;;4134787;28;20066;-71
2022/05/23 00:21:42;;;;;;;0.00;0.00;;;21.20;85.40;;;;;;4134468;28;20072;-71
2022/05/23 00:24:05;;;;;;;0.00;0.00;;;21.20;85.40;;;;;;4121201;28;20396;-72
2022/05/23 00:26:32;;;;;;;0.00;0.00;;;21.20;85.50;;;;;;4148865;28;20061;-71
2022/05/23 00:29:01;;;;;;;0.00;0.00;;;21.20;85.50;;;;;;4134871;28;20069;-71
2022/05/23 00:31:25;;;;;;;0.00;0.00;;;21.20;85.50;;;;;;4134214;28;20481;-70
2022/05/23 00:36:45;;;;;;;0.00;0.00;;;21.10;85.80;;;;;;4147602;28;20069;-71
2022/05/23 00:39:08;;;;;;;0.00;0.00;;;21.10;86.00;;;;;;4121050;28;20080;-70
2022/05/23 00:44:33;;;;;;;0.00;0.00;;;21.00;85.90;;;;;;4135960;28;20124;-70
2022/05/23 00:47:21;;;;;;;0.00;0.00;;;21.00;86.00;;;;;;4123578;28;20061;-71
2022/05/23 00:49:43;;;;;;;0.00;0.00;;;21.00;86.30;;;;;;4120809;28;20504;-71
2022/05/23 00:55:37;;;;;;;0.00;0.00;;;21.00;86.60;;;;;;4133882;28;20058;-71
2022/05/23 00:58:17;;;;;;;0.00;0.00;;;20.90;86.80;;;;;;4134053;28;20050;-71
2022/05/23 01:00:46;;;;;;;0.00;0.00;;;20.90;86.90;;;;;;4122421;28;20150;-70
2022/05/23 01:03:20;;;;;;;0.00;0.00;;;20.90;87.00;;;;;;4135761;28;20065;-70
2022/05/23 01:05:54;;;;;;;0.00;0.00;;;20.90;87.10;;;;;;4122988;28;20054;-72
2022/05/23 01:08:18;;;;;;;0.00;0.00;;;20.90;87.20;;;;;;4120389;28;20053;-70
2022/05/23 01:10:53;;;;;;;0.00;0.00;;;20.90;87.20;;;;;;4122829;28;20053;-70
2022/05/23 01:13:28;;;;;;;0.00;0.00;;;20.90;87.30;;;;;;4134950;28;20536;-70
2022/05/23 01:15:58;;;;;;;0.00;0.00;;;20.90;87.60;;;;;;4134147;28;20381;-70
2022/05/23 01:18:34;;;;;;;0.00;0.00;;;20.70;88.30;;;;;;4123100;28;20054;-70
2022/05/23 01:21:31;;;;;;;0.00;0.00;;;20.60;88.70;;;;;;4135780;28;20121;-72
2022/05/23 01:24:41;;;;;;;0.00;0.00;;;20.60;89.10;;;;;;4108841;28;20053;-70
2022/05/23 01:27:07;;;;;;;0.00;0.00;;;20.70;89.40;;;;;;4133869;28;20364;-70
2022/05/23 01:29:37;;;;;;;0.00;0.00;;;20.60;89.50;;;;;;4120783;28;20428;-72
2022/05/23 01:32:07;;;;;;;0.00;0.00;;;20.70;89.80;;;;;;4120173;28;20152;-71
2022/05/23 01:34:32;;;;;;;0.00;0.00;;;20.70;89.90;;;;;;4120745;28;20456;-70
2022/05/23 01:37:02;;;;;;;0.00;0.00;;;20.70;89.80;;;;;;4120648;28;20400;-71
2022/05/23 01:39:30;;;;;;;0.00;0.00;;;20.70;89.90;;;;;;4120108;28;20149;-71
2022/05/23 01:41:54;;;;;;;0.00;0.00;;;20.70;89.70;;;;;;4120253;28;20055;-70
2022/05/23 01:44:16;;;;;;;0.00;0.00;;;20.80;89.70;;;;;;4120511;28;20109;-70
2022/05/23 01:46:50;;;;;;;0.00;0.00;;;20.80;89.50;;;;;;4106921;28;20087;-71
2022/05/23 01:49:31;;;;;;;0.00;0.00;;;20.80;89.60;;;;;;4190938;28;20057;-70
2022/05/23 01:52:02;;;;;;;0.00;0.00;;;20.70;89.70;;;;;;4119925;28;20140;-70
2022/05/23 01:54:34;;;;;;;0.00;0.00;;;20.70;90.00;;;;;;4119935;28;20148;-72
2022/05/23 01:56:59;;;;;;;0.00;0.00;;;20.70;90.00;;;;;;4119864;28;20177;-70
2022/05/23 02:02:13;;;;;;;0.00;0.00;;;20.70;90.00;;;;;;4119431;28;20070;-71
2022/05/23 02:04:37;;;;;;;0.00;0.00;;;20.70;90.10;;;;;;4106739;28;20058;-70
2022/05/23 02:07:06;;;;;;;0.00;0.00;;;20.70;90.10;;;;;;4120165;28;20058;-70
2022/05/23 02:09:34;;;;;;;0.00;0.00;;;20.70;90.10;;;;;;4119808;28;20538;-73
2022/05/23 02:12:19;;;;;;;0.00;0.00;;;20.70;90.10;;;;;;4122576;28;20129;-70
2022/05/23 02:14:42;;;;;;;0.00;0.00;;;20.70;90.10;;;;;;4190302;28;20045;-71
2022/05/23 02:17:16;;;;;;;0.00;0.00;;;20.70;90.10;;;;;;4119706;28;20126;-70
2022/05/23 02:19:39;;;;;;;0.00;0.00;;;20.60;90.10;;;;;;4119727;28;20097;-72
2022/05/23 02:22:10;;;;;;;0.00;0.00;;;20.60;90.10;;;;;;4107277;28;20112;-70
2022/05/23 02:24:32;;;;;;;0.00;0.00;;;20.60;90.10;;;;;;4119674;28;20089;-70
2022/05/23 02:26:55;;;;;;;0.00;0.00;;;20.60;90.10;;;;;;4190440;28;20131;-70
2022/05/23 02:29:31;;;;;;;0.00;0.00;;;20.60;90.00;;;;;;4119784;28;20055;-71
2022/05/23 02:31:55;;;;;;;0.00;0.00;;;20.60;90.10;;;;;;4132810;28;20125;-70
2022/05/23 02:34:18;;;;;;;0.00;0.00;;;20.50;90.00;;;;;;4119664;28;20126;-72
2022/05/23 02:36:47;;;;;;;0.00;0.00;;;20.50;90.10;;;;;;4105566;28;20134;-72
2022/05/23 02:39:14;;;;;;;0.00;0.00;;;20.50;90.20;;;;;;4119495;28;20465;-70
2022/05/23 02:41:42;;;;;;;0.00;0.00;;;20.50;90.20;;;;;;4105028;28;20055;-70
2022/05/23 02:44:08;;;;;;;0.00;0.00;;;20.50;90.10;;;;;;4106917;28;20058;-71
2022/05/23 02:46:30;;;;;;;0.00;0.00;;;20.50;90.10;;;;;;4119250;28;20098;-70
2022/05/23 02:48:59;;;;;;;0.00;0.00;;;20.60;90.10;;;;;;4119213;28;20082;-72
2022/05/23 02:51:23;;;;;;;0.00;0.00;;;20.60;90.10;;;;;;4119066;28;20047;-71
2022/05/23 02:53:51;;;;;;;0.00;0.00;;;20.60;90.00;;;;;;4119551;28;20470;-70
2022/05/23 02:56:19;;;;;;;0.00;0.00;;;20.70;89.90;;;;;;4119229;28;20065;-72
2022/05/23 02:58:41;;;;;;;0.00;0.00;;;20.50;89.80;;;;;;4146156;28;20041;-70
2022/05/23 03:01:03;;;;;;;0.00;0.00;;;20.40;90.20;;;;;;4133745;28;20082;-70
2022/05/23 03:03:33;;;;;;;0.00;0.00;;;20.40;90.20;;;;;;4146378;28;20054;-70
2022/05/23 03:05:58;;;;;;;0.00;0.00;;;20.40;90.30;;;;;;4106548;28;20153;-71
2022/05/23 03:08:24;;;;;;;0.00;0.00;;;20.50;90.20;;;;;;4119228;28;20050;-69
2022/05/23 03:10:48;;;;;;;0.00;0.00;;;20.50;90.20;;;;;;4119104;28;20647;-70
2022/05/23 03:13:11;;;;;;;0.00;0.00;;;20.50;90.10;;;;;;4146031;28;20050;-71
2022/05/23 03:15:36;;;;;;;0.00;0.00;;;20.50;90.10;;;;;;4118827;28;20055;-71
2022/05/23 03:17:59;;;;;;;0.00;0.00;;;20.40;90.10;;;;;;4118656;28;20043;-69
2022/05/23 03:20:24;;;;;;;0.00;0.00;;;20.40;90.10;;;;;;4119000;28;20058;-70
2022/05/23 03:28:12;;;;;;;0.00;0.00;;;20.40;90.10;;;;;;4119212;28;20059;-69
2022/05/23 03:30:40;;;;;;;0.00;0.00;;;20.50;90.10;;;;;;4106177;28;20062;-70
2022/05/23 03:33:04;;;;;;;0.00;0.00;;;20.50;90.10;;;;;;4118981;28;20432;-70
2022/05/23 03:35:31;;;;;;;0.00;0.00;;;20.50;90.00;;;;;;4119061;28;20108;-69
2022/05/23 03:37:56;;;;;;;0.00;0.00;;;20.50;90.00;;;;;;4105673;28;20530;-69
2022/05/23 03:40:19;;;;;;;0.00;0.00;;;20.60;90.00;;;;;;4145705;28;20439;-71
2022/05/23 03:42:51;;;;;;;0.00;0.00;;;20.50;90.00;;;;;;4118555;28;20449;-71
2022/05/23 03:45:18;;;;;;;0.00;0.00;;;20.40;90.10;;;;;;4118492;28;20085;-71
2022/05/23 03:47:42;;;;;;;0.00;0.00;;;20.00;90.70;;;;;;4145726;28;20072;-71
2022/05/23 03:50:15;;;;;;;0.00;0.00;;;19.90;91.10;;;;;;4118343;28;20043;-70
2022/05/23 03:52:39;;;;;;;0.00;0.00;;;19.90;91.20;;;;;;4118148;28;20607;-71
2022/05/23 03:55:05;;;;;;;0.00;0.00;;;20.00;91.20;;;;;;4145640;28;20144;-70
2022/05/23 03:57:27;;;;;;;0.00;0.00;;;20.10;91.10;;;;;;4118672;28;20512;-71
2022/05/23 03:59:49;;;;;;;0.00;0.00;;;20.10;91.00;;;;;;4119113;28;20461;-70
2022/05/23 04:02:11;;;;;;;0.00;0.00;;;20.10;91.30;;;;;;4145863;28;20058;-71
2022/05/23 04:04:34;;;;;;;0.00;0.00;;;20.00;92.00;;;;;;4118946;28;20062;-70
2022/05/23 04:07:38;;;;;;;0.00;0.00;;;19.80;92.80;;;;;;4133228;28;20166;-71
2022/05/23 04:10:13;;;;;;;0.00;0.00;;;19.90;92.90;;;;;;4118980;28;20477;-70
2022/05/23 04:12:36;;;;;;;0.00;0.00;;;20.00;92.80;;;;;;4132308;28;20042;-70
2022/05/23 04:15:02;;;;;;;0.00;0.00;;;20.10;92.70;;;;;;4105368;28;20134;-70
2022/05/23 04:17:25;;;;;;;0.00;0.00;;;20.10;92.80;;;;;;4118793;28;20087;-70
2022/05/23 04:19:48;;;;;;;0.00;0.00;;;20.20;92.60;;;;;;4118705;28;20069;-70
2022/05/23 04:22:18;;;;;;;0.00;0.00;;;20.20;92.50;;;;;;4145970;28;20085;-71
2022/05/23 04:24:57;;;;;;;0.00;0.00;;;20.10;92.60;;;;;;4145819;28;20096;-70
2022/05/23 04:27:19;;;;;;;0.00;0.00;;;20.00;92.90;;;;;;4118993;28;20082;-71
2022/05/23 04:29:44;;;;;;;0.00;0.00;;;19.90;93.00;;;;;;4118731;28;20047;-70
2022/05/23 04:35:18;;;;;;;0.00;0.00;;;19.80;93.50;;;;;;4118499;28;20200;-69
2022/05/23 04:37:48;;;;;;;0.00;0.00;;;19.70;93.70;;;;;;4101771;28;20054;-70
2022/05/23 04:40:15;;;;;;;0.00;0.00;;;19.80;93.70;;;;;;4102465;28;20051;-71
2022/05/23 04:42:42;;;;;;;0.00;0.00;;;19.90;93.50;;;;;;4101474;28;20051;-70
2022/05/23 04:45:05;;;;;;;0.00;0.00;;;20.00;93.50;;;;;;4115668;28;20058;-71
2022/05/23 04:50:17;;;;;;;0.00;0.00;;;19.80;93.40;;;;;;4126418;28;19929;-71
2022/05/23 04:52:48;;;;;;;0.00;0.00;;;19.80;93.20;;;;;;4088738;28;20055;-70
2022/05/23 04:55:12;;;;;;;0.00;0.00;;;19.70;92.60;;;;;;4126616;28;20050;-71
2022/05/23 04:57:40;;;;;;;0.00;0.00;;;19.60;92.40;;;;;;4099625;28;20101;-71
2022/05/23 05:00:06;;;;;;;0.00;0.00;;;19.70;92.30;;;;;;4113209;28;20157;-70
2022/05/23 05:02:38;;;;;;;0.00;0.00;;;19.70;92.00;;;;;;4126557;28;20141;-70
2022/05/23 05:05:03;;;;;;;0.00;0.00;;;19.80;91.80;;;;;;4101009;28;20097;-71
2022/05/23 05:07:35;;;;;;;0.00;0.00;;;19.80;91.70;;;;;;4102269;28;20059;-70
2022/05/23 05:09:59;;;;;;;0.00;0.00;;;19.80;91.70;;;;;;4102233;28;20051;-69
2022/05/23 05:12:21;;;;;;;0.00;0.00;;;19.80;91.80;;;;;;4102245;28;20048;-71
2022/05/23 05:14:43;;;;;;;0.00;0.00;;;19.90;91.80;;;;;;4129429;28;20461;-71
2022/05/23 05:17:06;;;;;;;0.00;0.00;;;20.00;91.80;;;;;;4102523;28;20057;-70
2022/05/23 05:19:31;;;;;;;0.00;0.00;;;20.10;91.70;;;;;;4102144;28;20090;-70
2022/05/23 05:22:25;;;;;;;0.00;0.00;;;20.20;91.40;;;;;;4150912;28;20139;-71
2022/05/23 05:25:07;;;;;;;0.00;0.00;;;20.10;91.40;;;;;;4104542;28;20133;-71
2022/05/23 05:27:37;;;;;;;0.00;0.00;;;20.20;91.30;;;;;;4102398;28;20063;-71
2022/05/23 05:30:03;;;;;;;0.00;0.00;;;20.10;91.20;;;;;;4102327;28;20493;-71
2022/05/23 05:32:53;;;;;;;0.00;0.00;;;20.10;91.00;;;;;;4142596;28;20111;-71
2022/05/23 05:35:27;;;;;;;0.00;0.00;;;20.10;91.00;;;;;;4129270;28;20088;-70
2022/05/23 05:38:08;;;;;;;0.00;0.00;;;20.10;91.00;;;;;;4115691;28;20395;-70
2022/05/23 05:40:34;;;;;;;0.00;0.00;;;20.20;90.90;;;;;;4102040;28;20051;-71
2022/05/23 05:43:04;;;;;;;0.00;0.00;;;20.20;90.70;;;;;;4101995;28;20070;-70
2022/05/23 05:45:41;;;;;;;0.00;0.00;;;20.30;90.60;;;;;;4101912;28;20055;-70
2022/05/23 05:48:31;;;;;;;0.00;0.00;;;20.50;90.40;;;;;;4101982;28;20533;-70
2022/05/23 05:50:56;;;;;;;0.00;0.00;;;20.60;90.10;;;;;;4115581;28;20066;-71
2022/05/23 05:53:31;;;;;;;0.00;0.00;;;20.60;90.00;;;;;;4101064;28;20058;-70
2022/05/23 05:55:58;;;;;;;0.00;0.00;;;20.60;89.30;;;;;;4102686;28;20050;-69
2022/05/23 05:58:25;;;;;;;0.00;0.00;;;20.70;89.50;;;;;;4128675;28;20043;-72
2022/05/23 06:00:50;;;;;;;0.00;0.00;;;20.80;89.50;;;;;;4115445;28;20058;-71
2022/05/23 06:03:16;;;;;;;0.00;0.00;;;20.90;89.20;;;;;;4088662;28;20337;-70
2022/05/23 06:11:34;;;;;;;0.00;0.00;;;20.90;88.30;;;;;;4142094;28;20057;-71
2022/05/23 06:14:12;;;;;;;0.00;0.00;;;20.90;88.10;;;;;;4101944;28;20123;-70
2022/05/23 06:16:38;;;;;;;0.00;0.00;;;21.00;88.00;;;;;;4101693;28;20063;-71
2022/05/23 06:19:14;;;;;;;0.00;0.00;;;21.10;87.80;;;;;;4101547;28;20109;-70
2022/05/23 06:22:04;;;;;;;0.00;0.00;;;21.10;87.70;;;;;;4091921;28;20052;-71
2022/05/23 06:24:28;;;;;;;0.00;0.00;;;21.30;87.20;;;;;;4101275;28;20142;-74
2022/05/23 06:26:55;;;;;;;0.00;0.00;;;21.30;87.10;;;;;;4101425;28;20097;-69
2022/05/23 06:29:30;;;;;;;0.00;0.00;;;21.30;87.10;;;;;;4101453;28;20532;-68
2022/05/23 06:32:06;;;;;;;0.00;0.00;;;21.50;86.70;;;;;;4101365;28;20386;-70
2022/05/23 06:34:30;;;;;;;0.00;0.00;;;21.60;86.40;;;;;;4101471;28;20054;-70
2022/05/23 06:36:57;;;;;;;0.00;0.00;;;21.60;86.60;;;;;;4110747;28;20061;-71
2022/05/23 06:39:19;;;;;;;0.00;0.00;;;21.60;86.80;;;;;;4116392;28;20047;-70
2022/05/23 06:42:02;;;;;;;0.00;0.00;;;21.70;86.60;;;;;;4129882;28;20378;-70
2022/05/23 06:44:44;;;;;;;0.00;0.00;;;21.70;86.30;;;;;;4130497;28;20055;-70
2022/05/23 06:47:25;;;;;;;0.00;0.00;;;21.70;86.10;;;;;;4177063;28;20050;-69
2022/05/23 06:50:12;;;;;;;0.00;0.00;;;21.80;85.50;;;;;;4130545;28;20235;-69
2022/05/23 06:53:02;;;;;;;0.00;0.00;;;22.00;85.10;;;;;;4128307;28;20064;-70
2022/05/23 06:55:51;;;;;;;0.00;0.00;;;22.10;85.10;;;;;;4137116;28;20058;-70
2022/05/23 06:58:15;;;;;;;0.00;0.00;;;22.20;83.80;;;;;;4116919;28;20078;-70
2022/05/23 07:00:40;;;;;;;0.00;0.00;;;22.20;83.00;;;;;;4117015;28;20086;-71
2022/05/23 07:03:09;;;;;;;0.00;0.00;;;22.10;82.40;;;;;;4116771;28;20050;-71
2022/05/23 07:14:00;;;;;;;0.00;0.00;;;22.10;82.30;;;;;;4116898;28;20058;-71
2022/05/23 07:16:23;;;;;;;0.00;0.00;;;22.10;82.40;;;;;;4144311;28;20092;-71
2022/05/23 07:18:48;;;;;;;0.00;0.00;;;22.10;82.10;;;;;;4116686;28;20108;-70
2022/05/23 07:21:19;;;;;;;0.00;0.00;;;22.10;82.00;;;;;;4143876;28;20070;-71
2022/05/23 07:24:04;;;;;;;0.00;0.00;;;22.30;82.10;;;;;;4130332;28;20443;-69
2022/05/23 07:26:48;;;;;;;0.00;0.00;;;22.30;82.00;;;;;;4144148;28;20091;-69
2022/05/23 07:29:13;;;;;;;0.00;0.00;;;22.50;81.50;;;;;;4116506;28;20050;-70
2022/05/23 07:31:38;;;;;;;0.00;0.00;;;22.60;81.30;;;;;;4116467;28;20527;-71
2022/05/23 07:34:00;;;;;;;0.00;0.00;;;22.80;81.10;;;;;;4130319;28;20061;-68
2022/05/23 07:36:25;;;;;;;0.00;0.00;;;23.00;80.60;;;;;;4117026;28;20061;-70
2022/05/23 07:38:50;;;;;;;0.00;0.00;;;23.00;80.10;;;;;;4143633;28;20137;-70
2022/05/23 07:41:32;;;;;;;0.00;0.00;;;23.00;80.10;;;;;;4130051;28;20145;-69
2022/05/23 07:43:58;;;;;;;0.00;0.00;;;23.00;80.10;;;;;;4118916;28;20061;-68
2022/05/23 07:46:22;;;;;;;0.00;0.00;;;23.20;80.30;;;;;;4105422;28;20112;-70
2022/05/23 07:48:48;;;;;;;0.00;0.00;;;23.30;79.50;;;;;;4119488;28;20054;-68
2022/05/23 07:51:15;;;;;;;0.00;0.00;;;23.30;79.60;;;;;;4118859;28;20055;-69
2022/05/23 08:01:48;;;;;;;0.00;0.00;;;23.70;78.30;;;;;;4119804;28;20051;-71
2022/05/23 08:04:16;;;;;;;0.00;0.00;;;24.00;78.10;;;;;;4104606;28;20043;-70
2022/05/23 08:06:41;;;;;;;0.00;0.00;;;24.20;76.80;;;;;;4116353;28;20059;-72
2022/05/23 08:09:09;;;;;;;0.00;0.00;;;24.20;76.70;;;;;;4116130;28;20078;-69
2022/05/23 08:11:33;;;;;;;0.00;0.00;;;24.10;76.70;;;;;;4143188;28;20089;-69
2022/05/23 08:14:05;;;;;;;0.00;0.00;;;24.30;77.00;;;;;;4116916;28;20146;-71
2022/05/23 08:16:35;;;;;;;;;;;24.30;77.70;;;;;;4116401;28;20062;-69
2022/05/23 08:19:02;;;;;;;0.00;0.00;;;24.20;78.20;;;;;;4142963;28;20001;-69
2022/05/23 08:21:26;;;;;;;0.00;0.00;;;24.10;79.00;;;;;;4105689;28;20151;-69
2022/05/23 08:23:51;;;;;;;0.00;0.00;;;24.20;79.70;;;;;;4099609;28;20036;-69
2022/05/23 08:26:25;;;;;;;0.00;0.00;;;24.10;80.60;;;;;;4169592;28;20135;-71
2022/05/23 08:28:49;;;;;;;0.00;0.00;;;24.20;81.40;;;;;;4112885;28;20436;-68
2022/05/23 08:31:16;;;;;;;0.00;0.00;;;24.50;80.90;;;;;;4126564;28;20051;-71
2022/05/23 08:33:50;;;;;;;0.00;0.00;;;24.70;80.50;;;;;;4086220;28;20052;-68
2022/05/23 08:36:20;;;;;;;0.00;0.00;;;24.80;80.60;;;;;;4101667;28;20062;-69
2022/05/23 08:38:45;;;;;;;0.00;0.00;;;24.90;80.10;;;;;;4114824;28;20083;-69
2022/05/23 08:41:18;;;;;;;0.00;0.00;;;24.90;78.80;;;;;;4145028;28;20057;-70
2022/05/23 08:44:14;;;;;;;0.00;0.00;;;25.00;79.00;;;;;;4118166;28;20470;-71
2022/05/23 08:47:03;;;;;;;0.00;0.00;;;25.00;78.40;;;;;;4105282;28;20090;-69
2022/05/23 08:49:37;;;;;;;0.00;0.00;;;24.60;80.10;;;;;;4145674;28;20050;-72
2022/05/23 08:52:08;;;;;;;0.00;0.00;;;24.60;80.30;;;;;;4202967;28;20053;-70
2022/05/23 08:54:42;;;;;;;0.00;0.00;;;24.60;79.50;;;;;;4216929;28;20048;-69
2022/05/23 08:57:32;;;;;;;0.00;0.00;;;24.60;79.60;;;;;;4203095;28;20044;-71
2022/05/23 09:00:00;;;;;;;0.00;0.00;;;24.70;78.70;;;;;;4189337;28;20116;-68
2022/05/23 09:02:54;;;;;;;0.00;0.00;;;24.80;79.20;;;;;;4217175;28;20367;-70
2022/05/23 09:05:32;;;;;;;0.00;0.00;;;25.00;79.50;;;;;;4189219;28;20628;-70
2022/05/23 09:08:23;;;;;;;0.00;0.00;;;25.20;78.70;;;;;;4231175;28;20036;-70
2022/05/23 09:11:01;;;;;;;0.00;0.00;;;25.50;78.60;;;;;;4217145;28;20044;-70
2022/05/23 09:13:27;;;;;;;0.00;0.00;;;25.60;77.60;;;;;;4202690;28;20075;-70
2022/05/23 09:15:59;;;;;;;0.00;0.00;;;25.50;77.60;;;;;;4174811;28;20057;-70
2022/05/23 09:18:26;;;;;;;0.00;0.00;;;25.50;77.60;;;;;;4217435;28;20040;-69
2022/05/23 09:20:52;;;;;;;0.00;0.00;;;25.40;77.80;;;;;;4202971;28;20040;-72
2022/05/23 09:23:37;;;;;;;0.00;0.00;;;25.50;78.10;;;;;;4202739;28;20044;-70
2022/05/23 09:26:09;;;;;;;0.00;0.00;;;25.50;77.80;;;;;;4188695;28;20448;-71
2022/05/23 09:28:39;;;;;;;0.00;0.00;;;25.70;78.20;;;;;;4202463;28;20055;-70
2022/05/23 09:31:15;;;;;;;0.00;0.00;;;25.90;77.40;;;;;;4216715;28;20166;-72
2022/05/23 09:33:49;;;;;;;0.00;0.00;;;26.00;76.90;;;;;;4202302;28;20056;-69
2022/05/23 09:36:43;;;;;;;0.00;0.00;;;26.10;76.70;;;;;;4189238;28;20119;-71
2022/05/23 09:39:08;;;;;;;0.00;0.00;;;26.30;76.20;;;;;;4202267;28;20067;-70
2022/05/23 09:47:44;;;;;;;0.00;0.00;;;26.20;74.10;;;;;;4202323;28;20063;-68
2022/05/23 09:50:07;;;;;;;0.00;0.00;;;26.40;74.70;;;;;;4187366;28;20080;-69
2022/05/23 09:52:50;;;;;;;0.00;0.00;;;26.50;74.60;;;;;;4187797;28;20088;-69
2022/05/23 09:55:22;;;;;;;0.00;0.00;;;26.60;74.50;;;;;;4188026;28;20048;-70
2022/05/23 09:57:53;;;;;;;0.00;0.00;;;26.80;74.00;;;;;;4201897;28;20032;-72
2022/05/23 10:00:20;;;;;;;0.00;0.00;;;26.90;73.60;;;;;;4187993;28;20052;-70
2022/05/23 10:03:04;;;;;;;0.00;0.00;;;27.00;72.80;;;;;;4201931;28;20067;-71
2022/05/23 10:05:53;;;;;;;0.00;0.00;;;27.00;72.90;;;;;;4201716;28;20057;-70
2022/05/23 10:08:28;;;;;;;0.00;0.00;;;27.00;72.60;;;;;;4215904;28;20059;-71
2022/05/23 10:10:56;;;;;;;0.00;0.00;;;27.10;71.90;;;;;;4187435;28;20076;-70
2022/05/23 10:13:26;;;;;;;0.00;0.00;;;27.10;71.60;;;;;;4188229;28;20179;-69
2022/05/23 10:15:55;;;;;;;0.00;0.00;;;27.10;71.80;;;;;;4188082;28;20503;-69
2022/05/23 10:18:35;;;;;;;0.00;0.00;;;27.20;71.80;;;;;;4230259;28;20059;-68
2022/05/23 10:21:18;;;;;;;0.00;0.00;;;27.30;71.90;;;;;;4187594;28;20053;-71
2022/05/23 10:23:39;;;;;;;0.00;0.00;;;27.40;72.60;;;;;;4201807;28;20052;-69
2022/05/23 10:26:11;;;;;;;0.00;0.00;;;27.50;72.60;;;;;;4201631;28;20128;-69
2022/05/23 10:28:43;;;;;;;0.00;0.00;;;27.40;72.50;;;;;;4187636;28;20466;-71
2022/05/23 10:31:26;;;;;;;0.00;0.00;;;27.50;73.70;;;;;;4201376;28;20052;-71
2022/05/23 10:33:58;;;;;;;0.00;0.00;;;27.60;73.10;;;;;;4187436;28;20114;-69
2022/05/23 10:36:30;;;;;;;0.00;0.00;;;27.70;73.50;;;;;;4187643;28;20099;-70
2022/05/23 10:42:07;;;;;;;0.00;0.00;;;27.80;72.50;;;;;;4198777;28;20088;-69
2022/05/23 10:45:09;;;;;;;0.00;0.00;;;27.70;72.10;;;;;;4184877;28;20048;-71
2022/05/23 10:47:38;;;;;;;0.00;0.00;;;27.50;72.20;;;;;;4184823;28;20048;-70
2022/05/23 10:50:20;;;;;;;0.00;0.00;;;27.30;72.20;;;;;;4178839;28;20092;-69
2022/05/23 10:52:51;;;;;;;0.00;0.00;;;27.40;72.10;;;;;;4117010;28;20084;-69
2022/05/23 10:55:22;;;;;;;0.00;0.00;;;27.40;71.40;;;;;;4116840;28;20104;-73
2022/05/23 10:58:08;;;;;;;0.00;0.00;;;27.30;71.30;;;;;;4103621;28;20141;-70
2022/05/23 11:00:50;;;;;;;0.00;0.00;;;27.30;71.70;;;;;;4130494;28;20481;-73
2022/05/23 11:03:21;;;;;;;0.00;0.00;;;27.20;71.60;;;;;;4143247;28;20111;-72
2022/05/23 11:06:04;;;;;;;0.00;0.00;;;27.10;71.40;;;;;;4117153;28;20046;-68
2022/05/23 11:08:35;;;;;;;0.00;0.00;;;26.90;71.70;;;;;;4116885;28;20066;-70
2022/05/23 11:11:14;;;;;;;0.00;0.00;;;26.70;71.50;;;;;;4116778;28;20153;-68
2022/05/23 11:13:59;;;;;;;0.00;0.00;;;26.60;71.20;;;;;;4103470;28;20050;-71
2022/05/23 11:16:24;;;;;;;0.00;0.00;;;26.50;69.90;;;;;;4103508;28;20055;-68
2022/05/23 11:19:08;;;;;;;0.00;0.00;;;26.40;70.10;;;;;;4116663;28;20073;-71
2022/05/23 11:21:55;;;;;;;0.00;0.00;;;26.60;69.40;;;;;;4116862;28;20073;-69
2022/05/23 11:24:26;;;;;;;0.00;0.00;;;26.40;68.10;;;;;;4130442;28;20062;-68
2022/05/23 11:26:54;;;;;;;0.00;0.00;;;26.20;67.60;;;;;;4103093;28;20047;-71
2022/05/23 11:35:10;;;;;;;0.00;0.00;;;26.30;67.40;;;;;;4116704;28;20043;-68
2022/05/23 11:37:48;;;;;;;0.00;0.00;;;26.30;67.10;;;;;;4102955;28;20054;-70
2022/05/23 11:40:14;;;;;;;0.00;0.00;;;26.20;67.30;;;;;;4157949;28;20059;-70
2022/05/23 11:42:49;;;;;;;0.00;0.00;;;26.30;66.90;;;;;;4103454;28;20169;-69
2022/05/23 11:48:41;;;;;;;0.00;0.00;;;26.40;67.30;;;;;;4119181;28;20171;-68
2022/05/23 11:51:15;;;;;;;0.00;0.00;;;26.40;67.90;;;;;;4102772;28;20063;-70
2022/05/23 11:53:44;;;;;;;0.00;0.00;;;26.50;68.30;;;;;;4116225;28;20078;-71
2022/05/23 11:56:09;;;;;;;0.00;0.00;;;26.70;70.60;;;;;;4102950;28;20059;-70
2022/05/23 11:58:52;;;;;;;0.00;0.00;;;27.00;73.50;;;;;;4103089;28;20051;-69
2022/05/23 12:01:14;;;;;;;0.00;0.00;;;27.20;73.60;;;;;;4116394;28;20144;-70
2022/05/23 12:03:52;;;;;;;0.00;0.00;;;27.20;71.10;;;;;;4103175;28;20054;-70
2022/05/23 12:06:24;;;;;;;0.00;0.00;;;27.20;69.60;;;;;;4116454;28;20369;-72
2022/05/23 12:08:58;;;;;;;;;;;27.20;68.90;;;;;;4130433;28;20372;-72
2022/05/23 12:11:21;;;;;;;0.00;0.00;;;27.10;68.90;;;;;;4116199;28;19930;-70
2022/05/23 12:13:46;;;;;;;0.00;0.00;;;27.10;68.20;;;;;;4186943;28;20095;-71
2022/05/23 12:16:22;;;;;;;0.00;0.00;;;26.70;67.50;;;;;;4118952;28;20054;-69
2022/05/23 12:18:50;;;;;;;0.00;0.00;;;26.60;67.90;;;;;;4105472;28;20043;-69
2022/05/23 12:21:36;;;;;;;0.00;0.00;;;26.80;67.00;;;;;;4119553;28;20539;-69
2022/05/23 12:24:23;;;;;;;0.00;0.00;;;26.90;66.10;;;;;;4118908;28;20111;-70
2022/05/23 12:27:07;;;;;;;0.00;0.00;;;26.90;65.60;;;;;;4094710;28;20057;-72
2022/05/23 12:29:31;;;;;;;0.00;0.00;;;27.00;65.20;;;;;;4132319;28;20059;-69
2022/05/23 12:32:18;;;;;;;0.00;0.00;;;27.10;64.40;;;;;;4118760;28;20050;-70
2022/05/23 12:34:46;;;;;;;0.00;0.00;;;27.10;64.70;;;;;;4118654;28;20059;-71
2022/05/23 12:37:20;;;;;;;0.00;0.00;;;27.10;64.80;;;;;;4105540;28;20097;-70
2022/05/23 12:39:51;;;;;;;0.00;0.00;;;27.10;63.50;;;;;;4130556;28;20053;-71
2022/05/23 12:42:52;;;;;;;0.00;0.00;;;26.70;62.80;;;;;;4091526;28;20052;-69
2022/05/23 12:45:48;;;;;;;0.00;0.00;;;26.90;62.70;;;;;;4104532;28;20138;-72
2022/05/23 12:48:37;;;;;;;0.00;0.00;;;27.10;62.50;;;;;;4131703;28;20059;-69
2022/05/23 12:51:13;;;;;;;0.00;0.00;;;27.10;61.80;;;;;;4118442;28;20090;-71
2022/05/23 12:53:47;;;;;;;0.00;0.00;;;27.20;61.70;;;;;;4118454;28;20524;-70
2022/05/23 12:56:11;;;;;;;0.00;0.00;;;27.20;60.50;;;;;;4105244;28;20059;-72
2022/05/23 12:59:08;;;;;;;0.00;0.00;;;27.10;60.80;;;;;;4118662;28;20481;-72
2022/05/23 13:01:36;;;;;;;0.00;0.00;;;27.00;61.00;;;;;;4128456;28;20129;-70
2022/05/23 13:04:12;;;;;;;0.00;0.00;;;27.00;60.20;;;;;;4118572;28;20051;-72
2022/05/23 13:06:48;;;;;;;0.00;0.00;;;27.10;60.70;;;;;;4132180;28;20051;-71
2022/05/23 13:09:15;;;;;;;0.00;0.00;;;27.20;59.50;;;;;;4118294;28;20059;-70
2022/05/23 13:11:46;;;;;;;0.00;0.00;;;27.10;60.10;;;;;;4091738;28;20121;-71
2022/05/23 13:14:08;;;;;;;0.00;0.00;;;27.20;58.90;;;;;;4131775;28;20059;-70
2022/05/23 13:16:36;;;;;;;0.00;0.00;;;27.20;58.20;;;;;;4131611;28;20180;-69
2022/05/23 13:22:08;;;;;;;0.00;0.00;;;27.30;56.80;;;;;;4118161;28;20039;-70
2022/05/23 13:24:49;;;;;;;0.00;0.00;;;27.30;56.70;;;;;;4131492;28;20096;-69
2022/05/23 13:27:27;;;;;;;0.00;0.00;;;27.10;57.00;;;;;;4104291;28;20055;-70
2022/05/23 13:30:09;;;;;;;0.00;0.00;;;27.00;57.50;;;;;;4104614;28;20062;-69
2022/05/23 13:32:33;;;;;;;0.00;0.00;;;27.20;57.30;;;;;;4118193;28;20343;-70
2022/05/23 13:35:00;;;;;;;0.00;0.00;;;27.30;55.90;;;;;;4104436;28;20126;-72
2022/05/23 13:37:30;;;;;;;0.00;0.00;;;27.30;55.60;;;;;;4131741;28;20120;-70
2022/05/23 13:39:56;;;;;;;0.00;0.00;;;27.20;55.60;;;;;;4118057;28;20050;-72
2022/05/23 13:42:24;;;;;;;0.00;0.00;;;26.90;56.10;;;;;;4131558;28;20077;-69
2022/05/23 13:44:48;;;;;;;0.00;0.00;;;26.60;56.90;;;;;;4117870;28;20043;-70
2022/05/23 13:47:16;;;;;;;0.00;0.00;;;26.30;57.20;;;;;;4131679;28;20047;-70
2022/05/23 13:49:44;;;;;;;0.00;0.00;;;26.20;57.50;;;;;;4118076;28;20390;-70
2022/05/23 13:52:17;;;;;;;0.00;0.00;;;26.20;57.70;;;;;;4131628;28;20538;-72
2022/05/23 13:54:48;;;;;;;0.00;0.00;;;26.10;57.10;;;;;;4144791;28;20054;-74
2022/05/23 13:57:19;;;;;;;0.00;0.00;;;26.00;57.80;;;;;;4104309;28;20058;-69
2022/05/23 13:59:52;;;;;;;0.00;0.00;;;25.80;58.40;;;;;;4131219;28;20054;-70
2022/05/23 14:02:24;;;;;;;0.00;0.00;;;25.70;58.70;;;;;;4117951;28;20069;-70
2022/05/23 14:04:48;;;;;;;0.00;0.00;;;25.70;58.80;;;;;;4131357;28;20050;-71
2022/05/23 14:07:12;;;;;;;0.00;0.00;;;25.60;59.10;;;;;;4104511;28;20537;-70
2022/05/23 14:09:51;;;;;;;0.00;0.00;;;25.40;59.40;;;;;;4104715;28;20078;-71
2022/05/23 14:12:26;;;;;;;0.00;0.00;;;25.40;59.80;;;;;;4160546;28;20057;-69
2022/05/23 14:15:00;;;;;;;0.00;0.00;;;25.20;60.10;;;;;;4131202;28;20420;-70
2022/05/23 14:17:25;;;;;;;0.00;0.00;;;25.10;60.70;;;;;;4130864;28;20108;-71